sensor_id;sensor_type;location;lat;lon;timestamp;P1;durP1;ratioP1;P2;durP2;ratioP2
77888;SDS011;67082;41.704;44.768;2023-03-23T00:01:17;14.82;;;5.25;;
77888;SDS011;67082;41.704;44.768;2023-03-23T00:03:47;9.55;;;4.80;;
77888;SDS011;67082;41.704;44.768;2023-03-23T00:06:19;10.18;;;4.88;;
77888;SDS011;67082;41.704;44.768;2023-03-23T00:08:48;9.70;;;4.38;;
77888;SDS011;67082;41.704;44.768;2023-03-23T00:11:17;9.90;;;4.95;;
77888;SDS011;67082;41.704;44.768;2023-03-23T00:13:47;12.90;;;4.65;;
77888;SDS011;67082;41.704;44.768;2023-03-23T00:16:19;16.13;;;4.68;;
77888;SDS011;67082;41.704;44.768;2023-03-23T00:18:55;12.98;;;4.93;;
77888;SDS011;67082;41.704;44.768;2023-03-23T00:21:31;10.82;;;5.13;;
77888;SDS011;67082;41.704;44.768;2023-03-23T00:24:08;13.00;;;4.63;;
77888;SDS011;67082;41.704;44.768;2023-03-23T00:26:36;10.65;;;5.20;;
77888;SDS011;67082;41.704;44.768;2023-03-23T00:29:12;10.90;;;5.43;;
77888;SDS011;67082;41.704;44.768;2023-03-23T00:31:45;13.88;;;5.22;;
77888;SDS011;67082;41.704;44.768;2023-03-23T00:34:19;9.80;;;5.07;;
77888;SDS011;67082;41.704;44.768;2023-03-23T00:36:54;11.05;;;5.57;;
77888;SDS011;67082;41.704;44.768;2023-03-23T00:39:23;10.45;;;5.18;;
77888;SDS011;67082;41.704;44.768;2023-03-23T00:41:53;11.07;;;5.78;;
77888;SDS011;67082;41.704;44.768;2023-03-23T00:44:27;10.85;;;4.90;;
77888;SDS011;67082;41.704;44.768;2023-03-23T00:46:57;11.57;;;5.32;;
77888;SDS011;67082;41.704;44.768;2023-03-23T00:49:25;9.68;;;5.20;;
77888;SDS011;67082;41.704;44.768;2023-03-23T00:51:53;11.15;;;5.50;;
77888;SDS011;67082;41.704;44.768;2023-03-23T00:54:22;12.65;;;5.45;;
77888;SDS011;67082;41.704;44.768;2023-03-23T00:56:49;8.57;;;5.40;;
77888;SDS011;67082;41.704;44.768;2023-03-23T00:59:17;8.02;;;5.03;;
77888;SDS011;67082;41.704;44.768;2023-03-23T01:01:44;11.52;;;5.03;;
77888;SDS011;67082;41.704;44.768;2023-03-23T01:04:13;12.30;;;5.53;;
77888;SDS011;67082;41.704;44.768;2023-03-23T01:06:42;13.05;;;5.40;;
77888;SDS011;67082;41.704;44.768;2023-03-23T01:09:12;11.48;;;4.60;;
77888;SDS011;67082;41.704;44.768;2023-03-23T01:11:43;9.98;;;4.85;;
77888;SDS011;67082;41.704;44.768;2023-03-23T01:14:11;11.98;;;5.18;;
77888;SDS011;67082;41.704;44.768;2023-03-23T01:16:41;8.90;;;4.70;;
77888;SDS011;67082;41.704;44.768;2023-03-23T01:19:08;12.23;;;4.82;;
77888;SDS011;67082;41.704;44.768;2023-03-23T01:21:35;12.05;;;5.18;;
77888;SDS011;67082;41.704;44.768;2023-03-23T01:24:02;12.55;;;5.38;;
77888;SDS011;67082;41.704;44.768;2023-03-23T01:26:29;10.77;;;4.90;;
77888;SDS011;67082;41.704;44.768;2023-03-23T01:28:57;10.82;;;5.13;;
77888;SDS011;67082;41.704;44.768;2023-03-23T01:31:26;9.10;;;4.70;;
77888;SDS011;67082;41.704;44.768;2023-03-23T01:33:53;12.90;;;5.28;;
77888;SDS011;67082;41.704;44.768;2023-03-23T01:36:23;13.10;;;5.25;;
77888;SDS011;67082;41.704;44.768;2023-03-23T01:39:03;14.85;;;5.18;;
77888;SDS011;67082;41.704;44.768;2023-03-23T01:41:32;10.25;;;4.97;;
77888;SDS011;67082;41.704;44.768;2023-03-23T01:44:07;13.18;;;5.53;;
77888;SDS011;67082;41.704;44.768;2023-03-23T01:46:53;11.60;;;4.88;;
77888;SDS011;67082;41.704;44.768;2023-03-23T01:49:31;14.88;;;6.00;;
77888;SDS011;67082;41.704;44.768;2023-03-23T01:52:04;13.43;;;5.50;;
77888;SDS011;67082;41.704;44.768;2023-03-23T01:54:45;15.05;;;5.97;;
77888;SDS011;67082;41.704;44.768;2023-03-23T01:57:14;9.30;;;5.57;;
77888;SDS011;67082;41.704;44.768;2023-03-23T01:59:45;11.82;;;5.72;;
77888;SDS011;67082;41.704;44.768;2023-03-23T02:02:19;13.23;;;5.43;;
77888;SDS011;67082;41.704;44.768;2023-03-23T02:04:49;14.05;;;5.80;;
77888;SDS011;67082;41.704;44.768;2023-03-23T02:07:18;8.75;;;5.57;;
77888;SDS011;67082;41.704;44.768;2023-03-23T02:09:50;9.85;;;5.80;;
77888;SDS011;67082;41.704;44.768;2023-03-23T02:12:18;12.52;;;5.55;;
77888;SDS011;67082;41.704;44.768;2023-03-23T02:14:47;11.30;;;5.55;;
77888;SDS011;67082;41.704;44.768;2023-03-23T02:17:40;12.00;;;5.80;;
77888;SDS011;67082;41.704;44.768;2023-03-23T02:25:55;14.63;;;5.80;;
77888;SDS011;67082;41.704;44.768;2023-03-23T02:28:39;12.52;;;5.32;;
77888;SDS011;67082;41.704;44.768;2023-03-23T02:31:33;9.93;;;5.18;;
77888;SDS011;67082;41.704;44.768;2023-03-23T02:34:15;9.20;;;5.22;;
77888;SDS011;67082;41.704;44.768;2023-03-23T02:42:09;8.98;;;5.25;;
77888;SDS011;67082;41.704;44.768;2023-03-23T02:44:40;13.35;;;5.38;;
77888;SDS011;67082;41.704;44.768;2023-03-23T02:47:14;14.57;;;5.25;;
77888;SDS011;67082;41.704;44.768;2023-03-23T02:49:46;10.90;;;4.85;;
77888;SDS011;67082;41.704;44.768;2023-03-23T02:52:18;12.55;;;5.15;;
77888;SDS011;67082;41.704;44.768;2023-03-23T02:54:49;11.52;;;4.53;;
77888;SDS011;67082;41.704;44.768;2023-03-23T02:57:19;10.68;;;5.05;;
77888;SDS011;67082;41.704;44.768;2023-03-23T02:59:47;12.52;;;5.32;;
77888;SDS011;67082;41.704;44.768;2023-03-23T03:02:15;11.25;;;5.38;;
77888;SDS011;67082;41.704;44.768;2023-03-23T03:04:58;13.63;;;5.75;;
77888;SDS011;67082;41.704;44.768;2023-03-23T03:18:30;11.65;;;4.93;;
77888;SDS011;67082;41.704;44.768;2023-03-23T03:21:04;13.65;;;4.90;;
77888;SDS011;67082;41.704;44.768;2023-03-23T03:23:40;10.70;;;5.28;;
77888;SDS011;67082;41.704;44.768;2023-03-23T03:26:11;8.20;;;4.68;;
77888;SDS011;67082;41.704;44.768;2023-03-23T03:28:48;11.02;;;4.63;;
77888;SDS011;67082;41.704;44.768;2023-03-23T03:31:19;10.07;;;4.90;;
77888;SDS011;67082;41.704;44.768;2023-03-23T03:33:50;10.48;;;5.30;;
77888;SDS011;67082;41.704;44.768;2023-03-23T03:36:18;10.52;;;5.40;;
77888;SDS011;67082;41.704;44.768;2023-03-23T03:38:50;14.63;;;5.75;;
77888;SDS011;67082;41.704;44.768;2023-03-23T03:41:19;10.18;;;4.60;;
77888;SDS011;67082;41.704;44.768;2023-03-23T03:43:47;12.43;;;5.18;;
77888;SDS011;67082;41.704;44.768;2023-03-23T03:46:14;10.57;;;4.72;;
77888;SDS011;67082;41.704;44.768;2023-03-23T03:48:41;12.00;;;5.18;;
77888;SDS011;67082;41.704;44.768;2023-03-23T03:51:08;10.20;;;5.45;;
77888;SDS011;67082;41.704;44.768;2023-03-23T03:53:38;10.45;;;4.82;;
77888;SDS011;67082;41.704;44.768;2023-03-23T03:56:05;9.73;;;4.88;;
77888;SDS011;67082;41.704;44.768;2023-03-23T03:58:40;13.93;;;5.60;;
77888;SDS011;67082;41.704;44.768;2023-03-23T04:01:16;9.02;;;5.40;;
77888;SDS011;67082;41.704;44.768;2023-03-23T04:04:14;11.90;;;5.20;;
77888;SDS011;67082;41.704;44.768;2023-03-23T04:06:41;9.27;;;5.20;;
77888;SDS011;67082;41.704;44.768;2023-03-23T04:09:09;13.45;;;5.55;;
77888;SDS011;67082;41.704;44.768;2023-03-23T04:11:36;11.98;;;5.57;;
77888;SDS011;67082;41.704;44.768;2023-03-23T04:14:23;10.57;;;4.88;;
77888;SDS011;67082;41.704;44.768;2023-03-23T04:16:53;11.40;;;5.13;;
77888;SDS011;67082;41.704;44.768;2023-03-23T04:19:24;11.43;;;4.78;;
77888;SDS011;67082;41.704;44.768;2023-03-23T04:21:51;7.43;;;4.65;;
77888;SDS011;67082;41.704;44.768;2023-03-23T04:24:19;8.43;;;5.10;;
77888;SDS011;67082;41.704;44.768;2023-03-23T04:26:48;11.88;;;5.38;;
77888;SDS011;67082;41.704;44.768;2023-03-23T04:29:22;8.35;;;4.60;;
77888;SDS011;67082;41.704;44.768;2023-03-23T04:32:25;14.90;;;5.55;;
77888;SDS011;67082;41.704;44.768;2023-03-23T04:34:56;14.77;;;6.20;;
77888;SDS011;67082;41.704;44.768;2023-03-23T04:37:33;19.80;;;6.70;;
77888;SDS011;67082;41.704;44.768;2023-03-23T04:40:02;18.65;;;7.80;;
77888;SDS011;67082;41.704;44.768;2023-03-23T04:42:34;20.33;;;8.05;;
77888;SDS011;67082;41.704;44.768;2023-03-23T04:45:10;25.15;;;7.60;;
77888;SDS011;67082;41.704;44.768;2023-03-23T04:47:39;25.60;;;10.23;;
77888;SDS011;67082;41.704;44.768;2023-03-23T04:50:20;21.77;;;9.70;;
77888;SDS011;67082;41.704;44.768;2023-03-23T04:52:50;37.53;;;12.80;;
77888;SDS011;67082;41.704;44.768;2023-03-23T04:55:18;27.25;;;9.05;;
77888;SDS011;67082;41.704;44.768;2023-03-23T04:57:53;17.15;;;8.55;;
77888;SDS011;67082;41.704;44.768;2023-03-23T05:00:33;34.88;;;15.85;;
77888;SDS011;67082;41.704;44.768;2023-03-23T05:03:02;23.70;;;12.23;;
77888;SDS011;67082;41.704;44.768;2023-03-23T05:05:31;24.63;;;11.27;;
77888;SDS011;67082;41.704;44.768;2023-03-23T05:08:03;39.53;;;13.75;;
77888;SDS011;67082;41.704;44.768;2023-03-23T05:10:34;26.92;;;11.50;;
77888;SDS011;67082;41.704;44.768;2023-03-23T05:13:06;21.98;;;10.52;;
77888;SDS011;67082;41.704;44.768;2023-03-23T05:15:34;25.50;;;10.13;;
77888;SDS011;67082;41.704;44.768;2023-03-23T05:18:02;19.45;;;8.82;;
77888;SDS011;67082;41.704;44.768;2023-03-23T05:20:31;23.90;;;10.07;;
77888;SDS011;67082;41.704;44.768;2023-03-23T05:23:06;24.75;;;10.90;;
77888;SDS011;67082;41.704;44.768;2023-03-23T05:25:36;33.45;;;16.50;;
77888;SDS011;67082;41.704;44.768;2023-03-23T05:28:19;23.42;;;10.57;;
77888;SDS011;67082;41.704;44.768;2023-03-23T05:31:04;20.63;;;9.40;;
77888;SDS011;67082;41.704;44.768;2023-03-23T05:33:33;21.02;;;8.90;;
77888;SDS011;67082;41.704;44.768;2023-03-23T05:36:23;37.40;;;14.05;;
77888;SDS011;67082;41.704;44.768;2023-03-23T05:39:07;22.52;;;10.07;;
77888;SDS011;67082;41.704;44.768;2023-03-23T05:42:08;19.02;;;9.38;;
77888;SDS011;67082;41.704;44.768;2023-03-23T05:44:58;21.65;;;9.00;;
77888;SDS011;67082;41.704;44.768;2023-03-23T05:47:25;19.20;;;9.10;;
77888;SDS011;67082;41.704;44.768;2023-03-23T05:49:57;18.73;;;8.93;;
77888;SDS011;67082;41.704;44.768;2023-03-23T05:52:29;26.73;;;9.20;;
77888;SDS011;67082;41.704;44.768;2023-03-23T05:55:00;21.45;;;9.05;;
77888;SDS011;67082;41.704;44.768;2023-03-23T05:57:29;24.45;;;9.70;;
77888;SDS011;67082;41.704;44.768;2023-03-23T06:00:06;19.20;;;8.68;;
77888;SDS011;67082;41.704;44.768;2023-03-23T06:02:46;18.88;;;8.80;;
77888;SDS011;67082;41.704;44.768;2023-03-23T06:05:20;26.38;;;9.25;;
77888;SDS011;67082;41.704;44.768;2023-03-23T06:07:53;24.00;;;9.40;;
77888;SDS011;67082;41.704;44.768;2023-03-23T06:10:20;28.25;;;9.70;;
77888;SDS011;67082;41.704;44.768;2023-03-23T06:12:54;25.08;;;10.27;;
77888;SDS011;67082;41.704;44.768;2023-03-23T06:15:39;23.38;;;9.68;;
77888;SDS011;67082;41.704;44.768;2023-03-23T06:18:09;24.08;;;9.73;;
77888;SDS011;67082;41.704;44.768;2023-03-23T06:20:50;23.33;;;8.75;;
77888;SDS011;67082;41.704;44.768;2023-03-23T06:23:38;32.88;;;12.45;;
77888;SDS011;67082;41.704;44.768;2023-03-23T06:26:06;18.75;;;7.53;;
77888;SDS011;67082;41.704;44.768;2023-03-23T06:28:42;19.50;;;7.75;;
77888;SDS011;67082;41.704;44.768;2023-03-23T06:31:09;24.27;;;8.50;;
77888;SDS011;67082;41.704;44.768;2023-03-23T06:33:37;28.38;;;11.93;;
77888;SDS011;67082;41.704;44.768;2023-03-23T06:36:24;22.70;;;9.32;;
77888;SDS011;67082;41.704;44.768;2023-03-23T06:39:12;28.45;;;8.43;;
77888;SDS011;67082;41.704;44.768;2023-03-23T06:42:18;23.20;;;7.78;;
77888;SDS011;67082;41.704;44.768;2023-03-23T06:44:51;20.50;;;7.32;;
77888;SDS011;67082;41.704;44.768;2023-03-23T06:47:19;20.63;;;7.40;;
77888;SDS011;67082;41.704;44.768;2023-03-23T06:49:47;20.88;;;7.82;;
77888;SDS011;67082;41.704;44.768;2023-03-23T06:52:20;17.05;;;6.88;;
77888;SDS011;67082;41.704;44.768;2023-03-23T06:54:50;20.00;;;6.20;;
77888;SDS011;67082;41.704;44.768;2023-03-23T06:57:21;16.70;;;5.95;;
77888;SDS011;67082;41.704;44.768;2023-03-23T06:59:50;14.63;;;5.70;;
77888;SDS011;67082;41.704;44.768;2023-03-23T07:02:18;17.55;;;5.57;;
77888;SDS011;67082;41.704;44.768;2023-03-23T07:04:52;15.50;;;6.00;;
77888;SDS011;67082;41.704;44.768;2023-03-23T07:07:30;14.43;;;5.60;;
77888;SDS011;67082;41.704;44.768;2023-03-23T07:10:16;12.57;;;4.78;;
77888;SDS011;67082;41.704;44.768;2023-03-23T07:12:44;12.30;;;5.03;;
77888;SDS011;67082;41.704;44.768;2023-03-23T07:15:12;12.30;;;4.88;;
77888;SDS011;67082;41.704;44.768;2023-03-23T07:17:42;12.95;;;5.07;;
77888;SDS011;67082;41.704;44.768;2023-03-23T07:20:19;15.65;;;4.95;;
77888;SDS011;67082;41.704;44.768;2023-03-23T07:22:46;13.18;;;4.50;;
77888;SDS011;67082;41.704;44.768;2023-03-23T07:25:27;11.73;;;4.70;;
77888;SDS011;67082;41.704;44.768;2023-03-23T07:27:56;8.32;;;4.40;;
77888;SDS011;67082;41.704;44.768;2023-03-23T07:30:26;15.93;;;4.25;;
77888;SDS011;67082;41.704;44.768;2023-03-23T07:32:58;12.23;;;4.80;;
77888;SDS011;67082;41.704;44.768;2023-03-23T07:35:39;11.63;;;4.82;;
77888;SDS011;67082;41.704;44.768;2023-03-23T07:38:15;13.52;;;4.07;;
77888;SDS011;67082;41.704;44.768;2023-03-23T07:40:47;11.73;;;3.72;;
77888;SDS011;67082;41.704;44.768;2023-03-23T07:43:17;8.48;;;3.60;;
77888;SDS011;67082;41.704;44.768;2023-03-23T07:45:53;14.23;;;4.60;;
77888;SDS011;67082;41.704;44.768;2023-03-23T07:48:26;10.73;;;3.85;;
77888;SDS011;67082;41.704;44.768;2023-03-23T07:51:19;8.60;;;4.10;;
77888;SDS011;67082;41.704;44.768;2023-03-23T07:53:55;16.00;;;3.95;;
77888;SDS011;67082;41.704;44.768;2023-03-23T07:56:43;12.25;;;3.75;;
77888;SDS011;67082;41.704;44.768;2023-03-23T07:59:23;9.85;;;3.72;;
77888;SDS011;67082;41.704;44.768;2023-03-23T08:01:57;11.73;;;3.50;;
77888;SDS011;67082;41.704;44.768;2023-03-23T08:05:02;8.90;;;3.80;;
77888;SDS011;67082;41.704;44.768;2023-03-23T08:07:57;8.00;;;3.78;;
77888;SDS011;67082;41.704;44.768;2023-03-23T08:10:53;11.65;;;4.03;;
77888;SDS011;67082;41.704;44.768;2023-03-23T08:13:42;9.90;;;3.83;;
77888;SDS011;67082;41.704;44.768;2023-03-23T08:16:34;11.77;;;4.18;;
77888;SDS011;67082;41.704;44.768;2023-03-23T08:19:21;12.18;;;4.10;;
77888;SDS011;67082;41.704;44.768;2023-03-23T08:22:17;11.48;;;3.92;;
77888;SDS011;67082;41.704;44.768;2023-03-23T08:25:04;13.95;;;3.90;;
77888;SDS011;67082;41.704;44.768;2023-03-23T08:27:58;11.55;;;3.72;;
77888;SDS011;67082;41.704;44.768;2023-03-23T08:30:46;12.23;;;3.67;;
77888;SDS011;67082;41.704;44.768;2023-03-23T08:33:33;11.05;;;4.57;;
77888;SDS011;67082;41.704;44.768;2023-03-23T08:36:21;10.57;;;3.97;;
77888;SDS011;67082;41.704;44.768;2023-03-23T08:39:32;10.10;;;3.65;;
77888;SDS011;67082;41.704;44.768;2023-03-23T08:42:09;9.88;;;3.97;;
77888;SDS011;67082;41.704;44.768;2023-03-23T08:45:14;12.25;;;4.10;;
77888;SDS011;67082;41.704;44.768;2023-03-23T08:48:21;9.40;;;3.70;;
77888;SDS011;67082;41.704;44.768;2023-03-23T08:51:08;8.15;;;3.90;;
77888;SDS011;67082;41.704;44.768;2023-03-23T08:53:51;13.68;;;4.63;;
77888;SDS011;67082;41.704;44.768;2023-03-23T08:56:42;16.95;;;3.80;;
77888;SDS011;67082;41.704;44.768;2023-03-23T08:59:44;11.32;;;3.75;;
77888;SDS011;67082;41.704;44.768;2023-03-23T09:03:09;8.35;;;3.63;;
77888;SDS011;67082;41.704;44.768;2023-03-23T09:05:59;9.15;;;3.72;;
77888;SDS011;67082;41.704;44.768;2023-03-23T09:08:35;11.95;;;3.90;;
77888;SDS011;67082;41.704;44.768;2023-03-23T09:11:05;7.40;;;3.88;;
77888;SDS011;67082;41.704;44.768;2023-03-23T09:13:35;11.88;;;3.45;;
77888;SDS011;67082;41.704;44.768;2023-03-23T09:16:03;14.73;;;3.92;;
77888;SDS011;67082;41.704;44.768;2023-03-23T09:18:32;9.10;;;4.20;;
77888;SDS011;67082;41.704;44.768;2023-03-23T09:20:59;9.85;;;4.30;;
77888;SDS011;67082;41.704;44.768;2023-03-23T09:23:28;7.88;;;3.97;;
77888;SDS011;67082;41.704;44.768;2023-03-23T09:25:56;11.98;;;4.55;;
77888;SDS011;67082;41.704;44.768;2023-03-23T09:28:23;10.50;;;3.90;;
77888;SDS011;67082;41.704;44.768;2023-03-23T09:30:50;11.15;;;4.22;;
77888;SDS011;67082;41.704;44.768;2023-03-23T09:33:23;8.02;;;3.92;;
77888;SDS011;67082;41.704;44.768;2023-03-23T09:35:51;12.52;;;3.80;;
77888;SDS011;67082;41.704;44.768;2023-03-23T09:38:19;12.02;;;4.18;;
77888;SDS011;67082;41.704;44.768;2023-03-23T09:40:53;10.95;;;4.10;;
77888;SDS011;67082;41.704;44.768;2023-03-23T09:49:19;12.70;;;5.38;;
77888;SDS011;67082;41.704;44.768;2023-03-23T09:51:57;11.88;;;4.72;;
77888;SDS011;67082;41.704;44.768;2023-03-23T09:54:44;18.20;;;5.60;;
77888;SDS011;67082;41.704;44.768;2023-03-23T09:57:30;17.02;;;5.57;;
77888;SDS011;67082;41.704;44.768;2023-03-23T10:00:13;16.75;;;7.40;;
77888;SDS011;67082;41.704;44.768;2023-03-23T10:02:52;23.83;;;6.10;;
77888;SDS011;67082;41.704;44.768;2023-03-23T10:05:37;20.80;;;6.63;;
77888;SDS011;67082;41.704;44.768;2023-03-23T10:08:14;21.02;;;6.75;;
77888;SDS011;67082;41.704;44.768;2023-03-23T10:13:41;15.65;;;6.50;;
77888;SDS011;67082;41.704;44.768;2023-03-23T10:16:26;32.78;;;8.80;;
77888;SDS011;67082;41.704;44.768;2023-03-23T10:21:50;19.23;;;6.88;;
77888;SDS011;67082;41.704;44.768;2023-03-23T10:24:26;16.52;;;7.47;;
77888;SDS011;67082;41.704;44.768;2023-03-23T10:27:12;19.90;;;7.10;;
77888;SDS011;67082;41.704;44.768;2023-03-23T10:29:47;23.25;;;7.55;;
77888;SDS011;67082;41.704;44.768;2023-03-23T10:32:34;29.60;;;7.90;;
77888;SDS011;67082;41.704;44.768;2023-03-23T10:35:25;16.75;;;7.85;;
77888;SDS011;67082;41.704;44.768;2023-03-23T10:38:01;16.52;;;7.63;;
77888;SDS011;67082;41.704;44.768;2023-03-23T10:40:31;23.67;;;7.15;;
77888;SDS011;67082;41.704;44.768;2023-03-23T10:43:09;14.52;;;7.00;;
77888;SDS011;67082;41.704;44.768;2023-03-23T10:45:36;21.10;;;7.03;;
77888;SDS011;67082;41.704;44.768;2023-03-23T10:50:37;17.90;;;6.70;;
77888;SDS011;67082;41.704;44.768;2023-03-23T10:53:30;16.83;;;6.72;;
77888;SDS011;67082;41.704;44.768;2023-03-23T10:56:02;13.23;;;6.50;;
77888;SDS011;67082;41.704;44.768;2023-03-23T10:58:32;14.45;;;6.30;;
77888;SDS011;67082;41.704;44.768;2023-03-23T11:01:01;10.75;;;5.80;;
77888;SDS011;67082;41.704;44.768;2023-03-23T11:03:41;23.02;;;5.90;;
77888;SDS011;67082;41.704;44.768;2023-03-23T11:06:12;12.25;;;5.97;;
77888;SDS011;67082;41.704;44.768;2023-03-23T11:08:48;15.57;;;6.65;;
77888;SDS011;67082;41.704;44.768;2023-03-23T11:11:30;13.98;;;5.82;;
77888;SDS011;67082;41.704;44.768;2023-03-23T11:14:00;16.23;;;7.30;;
77888;SDS011;67082;41.704;44.768;2023-03-23T11:16:30;13.60;;;5.70;;
77888;SDS011;67082;41.704;44.768;2023-03-23T11:19:11;11.88;;;5.75;;
77888;SDS011;67082;41.704;44.768;2023-03-23T11:21:40;11.20;;;5.53;;
77888;SDS011;67082;41.704;44.768;2023-03-23T11:24:14;15.25;;;6.15;;
77888;SDS011;67082;41.704;44.768;2023-03-23T11:26:41;14.73;;;5.90;;
77888;SDS011;67082;41.704;44.768;2023-03-23T11:29:17;13.73;;;5.72;;
77888;SDS011;67082;41.704;44.768;2023-03-23T11:31:52;13.13;;;5.60;;
77888;SDS011;67082;41.704;44.768;2023-03-23T11:34:40;17.55;;;5.38;;
77888;SDS011;67082;41.704;44.768;2023-03-23T11:37:12;14.70;;;5.85;;
77888;SDS011;67082;41.704;44.768;2023-03-23T11:42:21;15.43;;;5.70;;
77888;SDS011;67082;41.704;44.768;2023-03-23T11:44:54;11.55;;;5.18;;
77888;SDS011;67082;41.704;44.768;2023-03-23T11:50:49;14.93;;;4.65;;
77888;SDS011;67082;41.704;44.768;2023-03-23T11:56:47;10.80;;;5.07;;
77888;SDS011;67082;41.704;44.768;2023-03-23T11:59:15;12.93;;;5.43;;
77888;SDS011;67082;41.704;44.768;2023-03-23T12:10:10;14.60;;;5.40;;
77888;SDS011;67082;41.704;44.768;2023-03-23T12:12:59;13.00;;;5.50;;
77888;SDS011;67082;41.704;44.768;2023-03-23T12:21:58;20.20;;;5.32;;
77888;SDS011;67082;41.704;44.768;2023-03-23T12:27:08;12.70;;;6.07;;
77888;SDS011;67082;41.704;44.768;2023-03-23T12:29:50;15.63;;;6.25;;
77888;SDS011;67082;41.704;44.768;2023-03-23T12:32:32;16.38;;;6.13;;
77888;SDS011;67082;41.704;44.768;2023-03-23T12:38:21;10.05;;;5.97;;
77888;SDS011;67082;41.704;44.768;2023-03-23T12:43:45;14.82;;;5.40;;
77888;SDS011;67082;41.704;44.768;2023-03-23T12:46:51;8.63;;;5.35;;
77888;SDS011;67082;41.704;44.768;2023-03-23T12:49:34;15.00;;;6.05;;
77888;SDS011;67082;41.704;44.768;2023-03-23T12:55:05;14.35;;;6.20;;
77888;SDS011;67082;41.704;44.768;2023-03-23T13:01:04;10.35;;;5.18;;
77888;SDS011;67082;41.704;44.768;2023-03-23T13:03:37;13.13;;;5.47;;
77888;SDS011;67082;41.704;44.768;2023-03-23T13:09:17;14.77;;;6.22;;
77888;SDS011;67082;41.704;44.768;2023-03-23T13:11:55;12.25;;;5.93;;
77888;SDS011;67082;41.704;44.768;2023-03-23T13:25:19;12.15;;;6.05;;
77888;SDS011;67082;41.704;44.768;2023-03-23T13:28:05;15.40;;;5.50;;
77888;SDS011;67082;41.704;44.768;2023-03-23T13:30:41;11.32;;;5.50;;
77888;SDS011;67082;41.704;44.768;2023-03-23T13:33:23;19.02;;;6.05;;
77888;SDS011;67082;41.704;44.768;2023-03-23T13:35:51;12.15;;;5.82;;
77888;SDS011;67082;41.704;44.768;2023-03-23T13:38:26;12.57;;;6.03;;
77888;SDS011;67082;41.704;44.768;2023-03-23T13:40:57;10.55;;;5.57;;
77888;SDS011;67082;41.704;44.768;2023-03-23T13:43:32;10.02;;;5.60;;
77888;SDS011;67082;41.704;44.768;2023-03-23T13:48:42;12.27;;;5.50;;
77888;SDS011;67082;41.704;44.768;2023-03-23T13:51:26;12.85;;;5.95;;
77888;SDS011;67082;41.704;44.768;2023-03-23T13:54:15;15.73;;;5.72;;
77888;SDS011;67082;41.704;44.768;2023-03-23T13:56:55;14.93;;;5.93;;
77888;SDS011;67082;41.704;44.768;2023-03-23T13:59:35;11.52;;;5.43;;
77888;SDS011;67082;41.704;44.768;2023-03-23T14:05:28;16.15;;;6.10;;
77888;SDS011;67082;41.704;44.768;2023-03-23T14:08:02;15.25;;;5.50;;
77888;SDS011;67082;41.704;44.768;2023-03-23T14:13:30;23.95;;;5.57;;
77888;SDS011;67082;41.704;44.768;2023-03-23T14:18:50;17.08;;;5.50;;
77888;SDS011;67082;41.704;44.768;2023-03-23T14:23:55;12.45;;;5.32;;
77888;SDS011;67082;41.704;44.768;2023-03-23T14:26:22;15.90;;;6.35;;
77888;SDS011;67082;41.704;44.768;2023-03-23T14:28:50;15.95;;;5.75;;
77888;SDS011;67082;41.704;44.768;2023-03-23T14:31:19;18.48;;;6.15;;
77888;SDS011;67082;41.704;44.768;2023-03-23T14:33:49;17.10;;;5.68;;
77888;SDS011;67082;41.704;44.768;2023-03-23T14:36:25;11.90;;;5.75;;
77888;SDS011;67082;41.704;44.768;2023-03-23T14:38:56;13.95;;;5.82;;
77888;SDS011;67082;41.704;44.768;2023-03-23T14:41:34;14.52;;;5.65;;
77888;SDS011;67082;41.704;44.768;2023-03-23T14:44:03;11.73;;;5.57;;
77888;SDS011;67082;41.704;44.768;2023-03-23T14:46:32;26.02;;;6.45;;
77888;SDS011;67082;41.704;44.768;2023-03-23T14:49:04;13.98;;;5.82;;
77888;SDS011;67082;41.704;44.768;2023-03-23T14:51:33;15.45;;;5.57;;
77888;SDS011;67082;41.704;44.768;2023-03-23T14:54:00;12.57;;;6.10;;
77888;SDS011;67082;41.704;44.768;2023-03-23T14:56:34;14.40;;;5.88;;
77888;SDS011;67082;41.704;44.768;2023-03-23T14:59:05;14.40;;;6.05;;
77888;SDS011;67082;41.704;44.768;2023-03-23T15:01:36;14.13;;;5.88;;
77888;SDS011;67082;41.704;44.768;2023-03-23T15:04:09;10.32;;;6.07;;
77888;SDS011;67082;41.704;44.768;2023-03-23T15:06:41;9.80;;;5.70;;
77888;SDS011;67082;41.704;44.768;2023-03-23T15:09:13;17.48;;;6.00;;
77888;SDS011;67082;41.704;44.768;2023-03-23T15:11:51;17.48;;;6.25;;
77888;SDS011;67082;41.704;44.768;2023-03-23T15:14:26;23.85;;;6.65;;
77888;SDS011;67082;41.704;44.768;2023-03-23T15:16:56;18.60;;;6.32;;
77888;SDS011;67082;41.704;44.768;2023-03-23T15:21:55;15.05;;;6.10;;
77888;SDS011;67082;41.704;44.768;2023-03-23T15:24:31;12.25;;;5.88;;
77888;SDS011;67082;41.704;44.768;2023-03-23T15:27:14;14.32;;;6.53;;
77888;SDS011;67082;41.704;44.768;2023-03-23T15:29:51;22.70;;;6.22;;
77888;SDS011;67082;41.704;44.768;2023-03-23T15:35:12;13.65;;;5.97;;
77888;SDS011;67082;41.704;44.768;2023-03-23T15:37:44;13.20;;;6.03;;
77888;SDS011;67082;41.704;44.768;2023-03-23T15:40:15;13.80;;;6.50;;
77888;SDS011;67082;41.704;44.768;2023-03-23T15:42:44;15.55;;;6.47;;
77888;SDS011;67082;41.704;44.768;2023-03-23T15:52:42;16.75;;;5.45;;
77888;SDS011;67082;41.704;44.768;2023-03-23T15:55:35;12.25;;;5.43;;
77888;SDS011;67082;41.704;44.768;2023-03-23T15:58:11;17.05;;;5.70;;
77888;SDS011;67082;41.704;44.768;2023-03-23T16:00:41;15.38;;;5.55;;
77888;SDS011;67082;41.704;44.768;2023-03-23T16:03:16;18.35;;;5.85;;
77888;SDS011;67082;41.704;44.768;2023-03-23T16:05:49;11.48;;;5.40;;
77888;SDS011;67082;41.704;44.768;2023-03-23T16:08:17;13.75;;;5.68;;
77888;SDS011;67082;41.704;44.768;2023-03-23T16:10:46;12.50;;;5.68;;
77888;SDS011;67082;41.704;44.768;2023-03-23T16:13:14;11.98;;;5.47;;
77888;SDS011;67082;41.704;44.768;2023-03-23T16:15:43;13.93;;;5.72;;
77888;SDS011;67082;41.704;44.768;2023-03-23T16:18:17;14.27;;;5.68;;
77888;SDS011;67082;41.704;44.768;2023-03-23T16:20:48;13.48;;;5.30;;
77888;SDS011;67082;41.704;44.768;2023-03-23T16:23:17;15.95;;;6.13;;
77888;SDS011;67082;41.704;44.768;2023-03-23T16:25:46;14.93;;;5.50;;
77888;SDS011;67082;41.704;44.768;2023-03-23T16:28:17;13.13;;;5.28;;
77888;SDS011;67082;41.704;44.768;2023-03-23T16:30:47;14.55;;;5.90;;
77888;SDS011;67082;41.704;44.768;2023-03-23T16:33:16;11.23;;;5.10;;
77888;SDS011;67082;41.704;44.768;2023-03-23T16:35:47;13.70;;;5.40;;
77888;SDS011;67082;41.704;44.768;2023-03-23T16:38:16;11.57;;;5.80;;
77888;SDS011;67082;41.704;44.768;2023-03-23T16:40:45;13.60;;;5.00;;
77888;SDS011;67082;41.704;44.768;2023-03-23T16:43:14;10.88;;;5.50;;
77888;SDS011;67082;41.704;44.768;2023-03-23T16:45:44;14.00;;;5.15;;
77888;SDS011;67082;41.704;44.768;2023-03-23T16:48:14;15.25;;;5.40;;
77888;SDS011;67082;41.704;44.768;2023-03-23T16:50:43;12.05;;;5.07;;
77888;SDS011;67082;41.704;44.768;2023-03-23T16:53:11;12.00;;;5.30;;
77888;SDS011;67082;41.704;44.768;2023-03-23T16:55:40;16.75;;;4.80;;
77888;SDS011;67082;41.704;44.768;2023-03-23T16:58:10;12.60;;;5.65;;
77888;SDS011;67082;41.704;44.768;2023-03-23T17:00:46;13.77;;;6.50;;
77888;SDS011;67082;41.704;44.768;2023-03-23T17:03:17;16.73;;;6.40;;
77888;SDS011;67082;41.704;44.768;2023-03-23T17:05:47;18.33;;;7.63;;